sensor_id;sensor_type;location;lat;lon;timestamp;pressure;altitude;pressure_sealevel;temperature;humidity
27294;BME280;14785;52.556;13.430;2023-08-17T00:01:44;101277.75;;;23.12;100.00
27294;BME280;14785;52.556;13.430;2023-08-17T00:04:10;101278.66;;;23.30;100.00
27294;BME280;14785;52.556;13.430;2023-08-17T00:06:36;101276.03;;;23.60;100.00
27294;BME280;14785;52.556;13.430;2023-08-17T00:09:01;101263.03;;;23.80;100.00
27294;BME280;14785;52.556;13.430;2023-08-17T00:11:30;101259.13;;;23.58;100.00
27294;BME280;14785;52.556;13.430;2023-08-17T00:13:56;101258.44;;;23.80;100.00
27294;BME280;14785;52.556;13.430;2023-08-17T00:16:21;101251.16;;;23.63;100.00
27294;BME280;14785;52.556;13.430;2023-08-17T00:18:48;101247.13;;;23.47;100.00
27294;BME280;14785;52.556;13.430;2023-08-17T00:21:13;101236.72;;;23.44;100.00
27294;BME280;14785;52.556;13.430;2023-08-17T00:23:39;101237.09;;;23.05;100.00
27294;BME280;14785;52.556;13.430;2023-08-17T00:26:04;101229.59;;;22.83;100.00
27294;BME280;14785;52.556;13.430;2023-08-17T00:28:31;101225.22;;;22.82;100.00
27294;BME280;14785;52.556;13.430;2023-08-17T00:30:56;101216.06;;;22.58;100.00
27294;BME280;14785;52.556;13.430;2023-08-17T00:33:22;101213.72;;;22.62;100.00
27294;BME280;14785;52.556;13.430;2023-08-17T00:35:50;101221.25;;;22.60;100.00
27294;BME280;14785;52.556;13.430;2023-08-17T00:38:15;101220.34;;;22.90;100.00
27294;BME280;14785;52.556;13.430;2023-08-17T00:40:41;101221.31;;;22.78;100.00
27294;BME280;14785;52.556;13.430;2023-08-17T00:43:07;101224.09;;;23.14;100.00
27294;BME280;14785;52.556;13.430;2023-08-17T00:45:32;101227.78;;;23.19;100.00
27294;BME280;14785;52.556;13.430;2023-08-17T00:47:58;101213.19;;;23.38;100.00
27294;BME280;14785;52.556;13.430;2023-08-17T00:50:25;101221.13;;;23.40;100.00
27294;BME280;14785;52.556;13.430;2023-08-17T00:52:51;101209.50;;;23.33;100.00
27294;BME280;14785;52.556;13.430;2023-08-17T00:55:18;101216.59;;;23.34;100.00
27294;BME280;14785;52.556;13.430;2023-08-17T00:57:43;101221.84;;;23.11;100.00
27294;BME280;14785;52.556;13.430;2023-08-17T01:00:11;101228.75;;;23.07;100.00
27294;BME280;14785;52.556;13.430;2023-08-17T01:02:39;101234.31;;;22.38;100.00
27294;BME280;14785;52.556;13.430;2023-08-17T01:05:05;101231.88;;;22.30;100.00
27294;BME280;14785;52.556;13.430;2023-08-17T01:07:31;101232.59;;;22.50;100.00
27294;BME280;14785;52.556;13.430;2023-08-17T01:09:57;101237.59;;;22.15;100.00
27294;BME280;14785;52.556;13.430;2023-08-17T01:12:29;101230.91;;;22.56;100.00
27294;BME280;14785;52.556;13.430;2023-08-17T01:17:42;101223.03;;;22.41;100.00
27294;BME280;14785;52.556;13.430;2023-08-17T01:20:10;101224.09;;;22.40;100.00
27294;BME280;14785;52.556;13.430;2023-08-17T01:22:39;101221.31;;;22.53;100.00
27294;BME280;14785;52.556;13.430;2023-08-17T01:25:06;101224.63;;;22.55;100.00
27294;BME280;14785;52.556;13.430;2023-08-17T01:27:37;101216.72;;;22.53;100.00
27294;BME280;14785;52.556;13.430;2023-08-17T01:30:03;101212.94;;;22.54;100.00
27294;BME280;14785;52.556;13.430;2023-08-17T01:32:37;101211.53;;;22.14;100.00
27294;BME280;14785;52.556;13.430;2023-08-17T01:35:28;101200.31;;;22.42;100.00
27294;BME280;14785;52.556;13.430;2023-08-17T01:37:59;101206.09;;;22.45;100.00
27294;BME280;14785;52.556;13.430;2023-08-17T01:40:27;101209.91;;;22.13;100.00
27294;BME280;14785;52.556;13.430;2023-08-17T01:42:54;101211.88;;;21.93;100.00
27294;BME280;14785;52.556;13.430;2023-08-17T01:45:20;101221.94;;;22.17;100.00
27294;BME280;14785;52.556;13.430;2023-08-17T01:47:46;101221.84;;;21.99;100.00
27294;BME280;14785;52.556;13.430;2023-08-17T01:50:13;101215.16;;;22.64;100.00
27294;BME280;14785;52.556;13.430;2023-08-17T01:52:39;101220.94;;;22.43;100.00
27294;BME280;14785;52.556;13.430;2023-08-17T01:55:04;101221.25;;;22.60;100.00
27294;BME280;14785;52.556;13.430;2023-08-17T01:57:30;101218.25;;;22.36;100.00
27294;BME280;14785;52.556;13.430;2023-08-17T01:59:55;101221.59;;;22.38;100.00
27294;BME280;14785;52.556;13.430;2023-08-17T02:02:21;101229.97;;;22.62;100.00
27294;BME280;14785;52.556;13.430;2023-08-17T02:04:47;101236.31;;;22.56;100.00
27294;BME280;14785;52.556;13.430;2023-08-17T02:07:12;101231.81;;;22.68;100.00
27294;BME280;14785;52.556;13.430;2023-08-17T02:09:37;101219.44;;;22.53;100.00
27294;BME280;14785;52.556;13.430;2023-08-17T02:12:03;101230.69;;;22.57;100.00
27294;BME280;14785;52.556;13.430;2023-08-17T02:14:28;101234.63;;;22.54;100.00
27294;BME280;14785;52.556;13.430;2023-08-17T02:16:54;101237.88;;;22.38;100.00
27294;BME280;14785;52.556;13.430;2023-08-17T02:19:19;101223.13;;;22.59;100.00
27294;BME280;14785;52.556;13.430;2023-08-17T02:21:45;101222.03;;;22.67;100.00
27294;BME280;14785;52.556;13.430;2023-08-17T02:24:10;101220.06;;;22.49;100.00
27294;BME280;14785;52.556;13.430;2023-08-17T02:26:37;101221.91;;;22.24;100.00
27294;BME280;14785;52.556;13.430;2023-08-17T02:29:03;101232.78;;;22.17;100.00
27294;BME280;14785;52.556;13.430;2023-08-17T02:31:29;101228.75;;;22.33;100.00
27294;BME280;14785;52.556;13.430;2023-08-17T02:33:55;101237.63;;;22.40;100.00
27294;BME280;14785;52.556;13.430;2023-08-17T02:36:26;101228.94;;;22.31;100.00
27294;BME280;14785;52.556;13.430;2023-08-17T02:38:52;101218.47;;;22.35;100.00
27294;BME280;14785;52.556;13.430;2023-08-17T02:41:18;101216.19;;;22.07;100.00
27294;BME280;14785;52.556;13.430;2023-08-17T02:43:43;101207.59;;;21.73;100.00
27294;BME280;14785;52.556;13.430;2023-08-17T02:46:09;101204.69;;;21.61;100.00
27294;BME280;14785;52.556;13.430;2023-08-17T02:48:34;101198.91;;;21.58;100.00
27294;BME280;14785;52.556;13.430;2023-08-17T02:51:00;101205.19;;;21.52;100.00
27294;BME280;14785;52.556;13.430;2023-08-17T02:53:25;101201.03;;;21.43;100.00
27294;BME280;14785;52.556;13.430;2023-08-17T02:55:50;101196.56;;;21.74;100.00
27294;BME280;14785;52.556;13.430;2023-08-17T02:58:16;101193.88;;;21.61;100.00
27294;BME280;14785;52.556;13.430;2023-08-17T03:00:41;101193.34;;;21.90;100.00
27294;BME280;14785;52.556;13.430;2023-08-17T03:03:06;101195.09;;;22.09;100.00
27294;BME280;14785;52.556;13.430;2023-08-17T03:05:33;101194.69;;;21.18;100.00
27294;BME280;14785;52.556;13.430;2023-08-17T03:07:58;101191.06;;;21.43;100.00
27294;BME280;14785;52.556;13.430;2023-08-17T03:10:24;101191.66;;;21.45;100.00
27294;BME280;14785;52.556;13.430;2023-08-17T03:12:50;101188.88;;;21.58;100.00
27294;BME280;14785;52.556;13.430;2023-08-17T03:15:16;101198.84;;;21.64;100.00
27294;BME280;14785;52.556;13.430;2023-08-17T03:17:41;101193.44;;;21.64;100.00
27294;BME280;14785;52.556;13.430;2023-08-17T03:20:07;101190.13;;;21.62;100.00
27294;BME280;14785;52.556;13.430;2023-08-17T03:22:34;101200.41;;;21.91;100.00
27294;BME280;14785;52.556;13.430;2023-08-17T03:25:01;101191.78;;;22.07;100.00
27294;BME280;14785;52.556;13.430;2023-08-17T03:27:27;101200.38;;;22.04;100.00
27294;BME280;14785;52.556;13.430;2023-08-17T03:29:53;101198.66;;;22.10;100.00
27294;BME280;14785;52.556;13.430;2023-08-17T03:32:19;101184.53;;;22.01;100.00
27294;BME280;14785;52.556;13.430;2023-08-17T03:34:44;101189.00;;;22.20;100.00
27294;BME280;14785;52.556;13.430;2023-08-17T03:37:10;101184.09;;;22.04;100.00
27294;BME280;14785;52.556;13.430;2023-08-17T03:39:35;101183.03;;;22.05;100.00
27294;BME280;14785;52.556;13.430;2023-08-17T03:42:00;101184.16;;;21.91;100.00
27294;BME280;14785;52.556;13.430;2023-08-17T03:44:26;101185.34;;;22.02;100.00
27294;BME280;14785;52.556;13.430;2023-08-17T03:46:51;101189.66;;;21.78;100.00
27294;BME280;14785;52.556;13.430;2023-08-17T03:49:16;101191.69;;;21.89;100.00
27294;BME280;14785;52.556;13.430;2023-08-17T03:51:42;101197.91;;;21.96;100.00
27294;BME280;14785;52.556;13.430;2023-08-17T03:54:07;101192.56;;;21.70;100.00
27294;BME280;14785;52.556;13.430;2023-08-17T03:56:32;101186.81;;;22.04;100.00
27294;BME280;14785;52.556;13.430;2023-08-17T03:58:58;101184.53;;;22.01;100.00
27294;BME280;14785;52.556;13.430;2023-08-17T04:01:24;101184.97;;;21.98;100.00
27294;BME280;14785;52.556;13.430;2023-08-17T04:03:50;101189.03;;;21.76;100.00
27294;BME280;14785;52.556;13.430;2023-08-17T04:06:15;101183.22;;;22.10;100.00
27294;BME280;14785;52.556;13.430;2023-08-17T04:08:41;101175.38;;;21.96;100.00
27294;BME280;14785;52.556;13.430;2023-08-17T04:11:06;101172.91;;;21.94;100.00
27294;BME280;14785;52.556;13.430;2023-08-17T04:13:31;101173.75;;;21.88;100.00
27294;BME280;14785;52.556;13.430;2023-08-17T04:15:57;101168.78;;;21.85;100.00
27294;BME280;14785;52.556;13.430;2023-08-17T04:18:22;101170.91;;;21.70;100.00
27294;BME280;14785;52.556;13.430;2023-08-17T04:20:49;101163.56;;;21.46;100.00
27294;BME280;14785;52.556;13.430;2023-08-17T04:23:15;101162.69;;;21.52;100.00
27294;BME280;14785;52.556;13.430;2023-08-17T04:25:40;101172.63;;;21.65;100.00
27294;BME280;14785;52.556;13.430;2023-08-17T04:28:05;101166.44;;;21.51;100.00
27294;BME280;14785;52.556;13.430;2023-08-17T04:30:32;101175.19;;;21.53;100.00
27294;BME280;14785;52.556;13.430;2023-08-17T04:32:58;101172.91;;;21.94;100.00
27294;BME280;14785;52.556;13.430;2023-08-17T04:35:23;101175.06;;;21.79;100.00
27294;BME280;14785;52.556;13.430;2023-08-17T04:37:49;101169.13;;;21.58;100.00
27294;BME280;14785;52.556;13.430;2023-08-17T04:40:14;101163.94;;;21.56;100.00
27294;BME280;14785;52.556;13.430;2023-08-17T04:42:40;101166.00;;;21.98;100.00
27294;BME280;14785;52.556;13.430;2023-08-17T04:45:06;101170.50;;;22.42;100.00
27294;BME280;14785;52.556;13.430;2023-08-17T04:47:33;101166.69;;;22.18;100.00
27294;BME280;14785;52.556;13.430;2023-08-17T04:49:58;101161.44;;;22.23;100.00
27294;BME280;14785;52.556;13.430;2023-08-17T04:52:23;101173.94;;;22.24;100.00
27294;BME280;14785;52.556;13.430;2023-08-17T04:54:49;101170.81;;;21.96;100.00
27294;BME280;14785;52.556;13.430;2023-08-17T04:57:14;101171.16;;;22.06;100.00
27294;BME280;14785;52.556;13.430;2023-08-17T04:59:40;101175.94;;;22.35;100.00
27294;BME280;14785;52.556;13.430;2023-08-17T05:02:06;101167.78;;;22.11;100.00
27294;BME280;14785;52.556;13.430;2023-08-17T05:04:31;101177.06;;;21.97;100.00
27294;BME280;14785;52.556;13.430;2023-08-17T05:06:56;101172.00;;;21.63;100.00
27294;BME280;14785;52.556;13.430;2023-08-17T05:09:22;101181.97;;;22.13;100.00
27294;BME280;14785;52.556;13.430;2023-08-17T05:11:47;101192.25;;;22.29;100.00
27294;BME280;14785;52.556;13.430;2023-08-17T05:14:13;101196.50;;;21.87;100.00
27294;BME280;14785;52.556;13.430;2023-08-17T05:16:39;101200.88;;;22.19;100.00
27294;BME280;14785;52.556;13.430;2023-08-17T05:19:04;101198.53;;;21.98;100.00
27294;BME280;14785;52.556;13.430;2023-08-17T05:21:29;101197.78;;;22.72;100.00
27294;BME280;14785;52.556;13.430;2023-08-17T05:23:55;101199.84;;;22.76;100.00
27294;BME280;14785;52.556;13.430;2023-08-17T05:26:21;101194.28;;;22.40;100.00
27294;BME280;14785;52.556;13.430;2023-08-17T05:28:48;101204.91;;;22.10;100.00
27294;BME280;14785;52.556;13.430;2023-08-17T05:31:14;101197.56;;;21.73;100.00
27294;BME280;14785;52.556;13.430;2023-08-17T05:33:39;101194.03;;;22.41;100.00
27294;BME280;14785;52.556;13.430;2023-08-17T05:36:07;101183.03;;;22.86;100.00
27294;BME280;14785;52.556;13.430;2023-08-17T05:38:32;101178.22;;;22.88;100.00
27294;BME280;14785;52.556;13.430;2023-08-17T05:40:58;101183.56;;;22.76;100.00
27294;BME280;14785;52.556;13.430;2023-08-17T05:43:24;101183.63;;;22.70;100.00
27294;BME280;14785;52.556;13.430;2023-08-17T05:45:50;101180.78;;;23.01;100.00
27294;BME280;14785;52.556;13.430;2023-08-17T05:48:18;101175.75;;;23.22;100.00
27294;BME280;14785;52.556;13.430;2023-08-17T05:50:44;101188.16;;;22.76;100.00
27294;BME280;14785;52.556;13.430;2023-08-17T05:53:10;101177.16;;;22.89;100.00
27294;BME280;14785;52.556;13.430;2023-08-17T05:55:35;101193.78;;;22.74;100.00
27294;BME280;14785;52.556;13.430;2023-08-17T05:58:01;101198.56;;;22.79;100.00
27294;BME280;14785;52.556;13.430;2023-08-17T06:00:27;101203.25;;;22.90;100.00
27294;BME280;14785;52.556;13.430;2023-08-17T06:02:52;101213.97;;;23.03;100.00
27294;BME280;14785;52.556;13.430;2023-08-17T06:05:18;101216.50;;;23.58;100.00
27294;BME280;14785;52.556;13.430;2023-08-17T06:07:43;101227.47;;;23.99;100.00
27294;BME280;14785;52.556;13.430;2023-08-17T06:10:10;101238.44;;;24.11;100.00
27294;BME280;14785;52.556;13.430;2023-08-17T06:12:35;101260.00;;;23.88;100.00
27294;BME280;14785;52.556;13.430;2023-08-17T06:15:04;101276.16;;;23.83;100.00
27294;BME280;14785;52.556;13.430;2023-08-17T06:17:30;101280.69;;;23.71;100.00
27294;BME280;14785;52.556;13.430;2023-08-17T06:19:56;101286.28;;;23.40;100.00
27294;BME280;14785;52.556;13.430;2023-08-17T06:22:21;101281.84;;;23.21;100.00
27294;BME280;14785;52.556;13.430;2023-08-17T06:24:47;101266.81;;;23.97;100.00
27294;BME280;14785;52.556;13.430;2023-08-17T06:27:14;101262.78;;;24.47;100.00
27294;BME280;14785;52.556;13.430;2023-08-17T06:29:41;101260.25;;;24.98;100.00
27294;BME280;14785;52.556;13.430;2023-08-17T06:32:07;101254.13;;;25.14;100.00
27294;BME280;14785;52.556;13.430;2023-08-17T06:34:33;101261.09;;;24.87;100.00
27294;BME280;14785;52.556;13.430;2023-08-17T06:37:01;101263.78;;;24.76;100.00
27294;BME280;14785;52.556;13.430;2023-08-17T06:39:27;101262.53;;;25.01;100.00
27294;BME280;14785;52.556;13.430;2023-08-17T06:41:52;101264.47;;;25.35;100.00
27294;BME280;14785;52.556;13.430;2023-08-17T06:44:18;101257.31;;;25.00;100.00
27294;BME280;14785;52.556;13.430;2023-08-17T06:46:43;101252.59;;;25.41;100.00
27294;BME280;14785;52.556;13.430;2023-08-17T06:49:10;101241.97;;;25.79;100.00
27294;BME280;14785;52.556;13.430;2023-08-17T06:51:35;101240.41;;;26.23;100.00
27294;BME280;14785;52.556;13.430;2023-08-17T06:54:01;101233.28;;;25.20;100.00
27294;BME280;14785;52.556;13.430;2023-08-17T06:56:26;101237.56;;;25.39;100.00
27294;BME280;14785;52.556;13.430;2023-08-17T06:58:52;101238.50;;;25.33;100.00
27294;BME280;14785;52.556;13.430;2023-08-17T07:01:18;101235.91;;;25.77;100.00
27294;BME280;14785;52.556;13.430;2023-08-17T07:03:44;101234.16;;;26.11;100.00
27294;BME280;14785;52.556;13.430;2023-08-17T07:06:12;101231.09;;;26.07;100.00
27294;BME280;14785;52.556;13.430;2023-08-17T07:08:39;101236.50;;;25.17;100.00
27294;BME280;14785;52.556;13.430;2023-08-17T07:11:05;101231.75;;;24.89;100.00
27294;BME280;14785;52.556;13.430;2023-08-17T07:13:31;101225.72;;;25.10;100.00
27294;BME280;14785;52.556;13.430;2023-08-17T07:15:57;101229.03;;;25.47;100.00
27294;BME280;14785;52.556;13.430;2023-08-17T07:18:22;101236.19;;;25.64;100.00
27294;BME280;14785;52.556;13.430;2023-08-17T07:20:47;101240.25;;;25.27;100.00
27294;BME280;14785;52.556;13.430;2023-08-17T07:23:14;101238.50;;;25.33;100.00
27294;BME280;14785;52.556;13.430;2023-08-17T07:25:40;101239.91;;;25.47;100.00
27294;BME280;14785;52.556;13.430;2023-08-17T07:28:05;101239.19;;;26.02;100.00
27294;BME280;14785;52.556;13.430;2023-08-17T07:30:31;101234.53;;;26.15;100.00
27294;BME280;14785;52.556;13.430;2023-08-17T07:32:56;101244.91;;;26.46;100.00
27294;BME280;14785;52.556;13.430;2023-08-17T07:35:23;101241.44;;;25.94;100.00
27294;BME280;14785;52.556;13.430;2023-08-17T07:37:50;101252.38;;;25.43;100.00
27294;BME280;14785;52.556;13.430;2023-08-17T07:40:15;101249.13;;;25.57;100.00
27294;BME280;14785;52.556;13.430;2023-08-17T07:42:41;101245.97;;;25.49;100.00
27294;BME280;14785;52.556;13.430;2023-08-17T07:45:06;101236.63;;;25.33;100.00
27294;BME280;14785;52.556;13.430;2023-08-17T07:47:34;101238.75;;;25.08;100.00
27294;BME280;14785;52.556;13.430;2023-08-17T07:50:04;101242.66;;;25.35;100.00
27294;BME280;14785;52.556;13.430;2023-08-17T07:52:30;101235.78;;;25.21;100.00
27294;BME280;14785;52.556;13.430;2023-08-17T07:54:55;101230.94;;;25.74;100.00
27294;BME280;14785;52.556;13.430;2023-08-17T07:57:21;101237.09;;;26.38;100.00
27294;BME280;14785;52.556;13.430;2023-08-17T07:59:46;101233.84;;;25.96;100.00
27294;BME280;14785;52.556;13.430;2023-08-17T08:02:12;101231.09;;;26.07;100.00
27294;BME280;14785;52.556;13.430;2023-08-17T08:04:37;101231.56;;;26.04;100.00
27294;BME280;14785;52.556;13.430;2023-08-17T08:07:03;101230.31;;;26.24;100.00
27294;BME280;14785;52.556;13.430;2023-08-17T08:09:28;101229.06;;;26.76;100.00
27294;BME280;14785;52.556;13.430;2023-08-17T08:11:55;101223.56;;;26.43;100.00
27294;BME280;14785;52.556;13.430;2023-08-17T08:14:21;101228.06;;;26.82;100.00
27294;BME280;14785;52.556;13.430;2023-08-17T08:16:46;101222.06;;;26.35;100.00
27294;BME280;14785;52.556;13.430;2023-08-17T08:19:12;101213.47;;;26.27;100.00
27294;BME280;14785;52.556;13.430;2023-08-17T08:21:38;101199.56;;;26.12;100.00
27294;BME280;14785;52.556;13.430;2023-08-17T08:24:03;101198.94;;;26.54;100.00
27294;BME280;14785;52.556;13.430;2023-08-17T08:26:29;101203.28;;;26.67;100.00
27294;BME280;14785;52.556;13.430;2023-08-17T08:28:55;101192.66;;;26.54;100.00
27294;BME280;14785;52.556;13.430;2023-08-17T08:31:22;101203.28;;;26.67;100.00
27294;BME280;14785;52.556;13.430;2023-08-17T08:33:47;101192.94;;;27.07;100.00
27294;BME280;14785;52.556;13.430;2023-08-17T08:36:13;101200.09;;;26.42;100.00
27294;BME280;14785;52.556;13.430;2023-08-17T08:38:38;101198.63;;;26.51;100.00
27294;BME280;14785;52.556;13.430;2023-08-17T08:41:05;101195.31;;;26.82;100.00
27294;BME280;14785;52.556;13.430;2023-08-17T08:43:30;101189.09;;;27.03;100.00
27294;BME280;14785;52.556;13.430;2023-08-17T08:45:58;101177.63;;;26.68;100.00
27294;BME280;14785;52.556;13.430;2023-08-17T08:48:26;101181.63;;;25.87;100.00
27294;BME280;14785;52.556;13.430;2023-08-17T08:50:54;101175.69;;;25.90;100.00
27294;BME280;14785;52.556;13.430;2023-08-17T08:53:24;101183.69;;;26.08;100.00
27294;BME280;14785;52.556;13.430;2023-08-17T08:55:58;101175.41;;;26.03;100.00
27294;BME280;14785;52.556;13.430;2023-08-17T08:58:25;101168.78;;;25.99;100.00
27294;BME280;14785;52.556;13.430;2023-08-17T09:00:50;101167.16;;;25.59;100.00
27294;BME280;14785;52.556;13.430;2023-08-17T09:03:17;101170.41;;;25.44;100.00
27294;BME280;14785;52.556;13.430;2023-08-17T09:05:49;101164.97;;;25.44;100.00
27294;BME280;14785;52.556;13.430;2023-08-17T09:08:18;101157.97;;;25.76;100.00
27294;BME280;14785;52.556;13.430;2023-08-17T09:10:44;101156.19;;;25.19;100.00
27294;BME280;14785;52.556;13.430;2023-08-17T09:13:09;101154.81;;;25.05;100.00
27294;BME280;14785;52.556;13.430;2023-08-17T09:15:36;101151.88;;;24.95;100.00
27294;BME280;14785;52.556;13.430;2023-08-17T09:18:03;101141.78;;;25.07;100.00
27294;BME280;14785;52.556;13.430;2023-08-17T09:20:41;101143.38;;;24.69;100.00
27294;BME280;14785;52.556;13.430;2023-08-17T09:23:11;101138.66;;;25.27;100.00
27294;BME280;14785;52.556;13.430;2023-08-17T09:25:42;101145.19;;;25.26;100.00
27294;BME280;14785;52.556;13.430;2023-08-17T09:28:13;101151.41;;;25.77;100.00
27294;BME280;14785;52.556;13.430;2023-08-17T09:33:21;101165.44;;;25.97;100.00
27294;BME280;14785;52.556;13.430;2023-08-17T09:35:49;101163.38;;;26.49;100.00
27294;BME280;14785;52.556;13.430;2023-08-17T09:38:14;101166.00;;;26.28;100.00
27294;BME280;14785;52.556;13.430;2023-08-17T09:40:42;101167.41;;;25.85;100.00
27294;BME280;14785;52.556;13.430;2023-08-17T09:43:09;101160.41;;;26.51;100.00
27294;BME280;14785;52.556;13.430;2023-08-17T09:45:37;101158.09;;;26.43;100.00
27294;BME280;14785;52.556;13.430;2023-08-17T09:48:04;101158.97;;;26.48;100.00
27294;BME280;14785;52.556;13.430;2023-08-17T09:50:30;101151.63;;;26.32;100.00
27294;BME280;14785;52.556;13.430;2023-08-17T09:52:56;101156.41;;;26.08;100.00
27294;BME280;14785;52.556;13.430;2023-08-17T09:55:22;101168.53;;;26.62;100.00
27294;BME280;14785;52.556;13.430;2023-08-17T09:57:49;101168.38;;;26.69;100.00
27294;BME280;14785;52.556;13.430;2023-08-17T10:00:15;101164.53;;;26.37;100.00
27294;BME280;14785;52.556;13.430;2023-08-17T10:02:43;101159.56;;;26.50;100.00
27294;BME280;14785;52.556;13.430;2023-08-17T10:05:11;101153.59;;;27.03;100.00
27294;BME280;14785;52.556;13.430;2023-08-17T10:07:39;101161.56;;;26.55;100.00
27294;BME280;14785;52.556;13.430;2023-08-17T10:10:06;101145.31;;;26.98;100.00
27294;BME280;14785;52.556;13.430;2023-08-17T10:12:42;101145.69;;;26.68;100.00
27294;BME280;14785;52.556;13.430;2023-08-17T10:15:11;101148.31;;;26.47;100.00
27294;BME280;14785;52.556;13.430;2023-08-17T10:20:34;101137.25;;;26.37;100.00
27294;BME280;14785;52.556;13.430;2023-08-17T10:23:17;101132.97;;;25.96;100.00
27294;BME280;14785;52.556;13.430;2023-08-17T10:25:45;101142.53;;;26.76;100.00
27294;BME280;14785;52.556;13.430;2023-08-17T10:28:13;101145.19;;;26.22;100.00
27294;BME280;14785;52.556;13.430;2023-08-17T10:30:39;101144.03;;;26.51;100.00
27294;BME280;14785;52.556;13.430;2023-08-17T10:33:05;101147.59;;;25.90;100.00
27294;BME280;14785;52.556;13.430;2023-08-17T10:35:35;101141.34;;;26.06;100.00
27294;BME280;14785;52.556;13.430;2023-08-17T10:38:02;101142.34;;;26.17;100.00
27294;BME280;14785;52.556;13.430;2023-08-17T10:40:34;101154.00;;;26.95;100.00
27294;BME280;14785;52.556;13.430;2023-08-17T10:43:00;101147.63;;;27.06;100.00
27294;BME280;14785;52.556;13.430;2023-08-17T10:45:31;101147.31;;;26.86;100.00
27294;BME280;14785;52.556;13.430;2023-08-17T10:48:24;101138.53;;;26.84;100.00
27294;BME280;14785;52.556;13.430;2023-08-17T10:50:59;101136.06;;;26.82;100.00
27294;BME280;14785;52.556;13.430;2023-08-17T10:53:24;101131.13;;;27.39;100.00
27294;BME280;14785;52.556;13.430;2023-08-17T10:55:50;101134.25;;;27.74;100.00
27294;BME280;14785;52.556;13.430;2023-08-17T10:58:22;101135.28;;;27.90;100.00
27294;BME280;14785;52.556;13.430;2023-08-17T11:00:54;101136.31;;;27.62;100.00
27294;BME280;14785;52.556;13.430;2023-08-17T11:03:22;101136.50;;;28.35;100.00
27294;BME280;14785;52.556;13.430;2023-08-17T11:05:49;101128.47;;;28.97;100.00
27294;BME280;14785;52.556;13.430;2023-08-17T11:13:32;101131.88;;;30.71;100.00
27294;BME280;14785;52.556;13.430;2023-08-17T11:15:59;101138.47;;;30.95;100.00
27294;BME280;14785;52.556;13.430;2023-08-17T11:18:25;101131.91;;;30.76;100.00
27294;BME280;14785;52.556;13.430;2023-08-17T11:20:51;101133.53;;;30.07;100.00
27294;BME280;14785;52.556;13.430;2023-08-17T11:23:17;101134.59;;;30.91;100.00
27294;BME280;14785;52.556;13.430;2023-08-17T11:25:42;101126.72;;;31.48;100.00
27294;BME280;14785;52.556;13.430;2023-08-17T11:28:08;101128.78;;;32.48;100.00
27294;BME280;14785;52.556;13.430;2023-08-17T11:30:34;101128.63;;;32.01;100.00
27294;BME280;14785;52.556;13.430;2023-08-17T11:33:02;101128.84;;;30.87;100.00
27294;BME280;14785;52.556;13.430;2023-08-17T11:35:28;101124.25;;;30.43;100.00
27294;BME280;14785;52.556;13.430;2023-08-17T11:37:53;101128.06;;;30.57;100.00
27294;BME280;14785;52.556;13.430;2023-08-17T11:40:20;101131.34;;;30.69;100.00
27294;BME280;14785;52.556;13.430;2023-08-17T11:42:48;101134.06;;;30.84;100.00
27294;BME280;14785;52.556;13.430;2023-08-17T11:45:13;101129.41;;;29.94;100.00
27294;BME280;14785;52.556;13.430;2023-08-17T11:47:41;101128.59;;;30.04;100.00
27294;BME280;14785;52.556;13.430;2023-08-17T11:50:09;101124.78;;;30.55;100.00
27294;BME280;14785;52.556;13.430;2023-08-17T11:52:35;101122.03;;;30.30;100.00
27294;BME280;14785;52.556;13.430;2023-08-17T11:55:02;101126.09;;;29.77;100.00
27294;BME280;14785;52.556;13.430;2023-08-17T11:57:29;101118.72;;;30.08;100.00
27294;BME280;14785;52.556;13.430;2023-08-17T11:59:56;101121.72;;;29.09;100.00
27294;BME280;14785;52.556;13.430;2023-08-17T12:02:25;101113.34;;;28.89;100.00
27294;BME280;14785;52.556;13.430;2023-08-17T12:04:53;101118.66;;;28.59;100.00
27294;BME280;14785;52.556;13.430;2023-08-17T12:07:19;101114.81;;;29.69;100.00
27294;BME280;14785;52.556;13.430;2023-08-17T12:09:45;101123.69;;;30.41;100.00
27294;BME280;14785;52.556;13.430;2023-08-17T12:12:11;101122.56;;;30.62;100.00
27294;BME280;14785;52.556;13.430;2023-08-17T12:14:40;101110.03;;;31.19;100.00
27294;BME280;14785;52.556;13.430;2023-08-17T12:17:06;101116.88;;;31.37;100.00
27294;BME280;14785;52.556;13.430;2023-08-17T12:19:32;101111.38;;;31.37;100.00
27294;BME280;14785;52.556;13.430;2023-08-17T12:21:57;101113.75;;;32.02;100.00
27294;BME280;14785;52.556;13.430;2023-08-17T12:24:26;101113.69;;;32.69;100.00
27294;BME280;14785;52.556;13.430;2023-08-17T12:26:57;101106.25;;;32.98;100.00
27294;BME280;14785;52.556;13.430;2023-08-17T12:29:22;101105.09;;;34.53;100.00
27294;BME280;14785;52.556;13.430;2023-08-17T12:31:49;101114.19;;;34.99;100.00
27294;BME280;14785;52.556;13.430;2023-08-17T12:34:16;101110.25;;;35.27;100.00
27294;BME280;14785;52.556;13.430;2023-08-17T12:36:44;101110.94;;;34.33;100.00
27294;BME280;14785;52.556;13.430;2023-08-17T12:39:10;101106.22;;;34.20;100.00
27294;BME280;14785;52.556;13.430;2023-08-17T12:41:35;101101.53;;;34.02;100.00